»·PEaware :: N856CM KAVX-KSAN

N856CM :: KAVX-KSAN

FLIGHT INFORMATION

Flight Status: Arrived
Operator: Privately registered:
United States
More flights under this callsign
Pilot: Jimmy M. (17685)
Aircraft: ECLIPSE 500
(EA50)
More flights by this aircraft type
Origin: KAVX Catalina
United States
Destination: KSAN San Diego Intl-Lindbergh
United States
More flights between these airports :: More routes between these airports
Route: SXC V208 LAX118R CARDI MZB320R MZB
File this flight plan on PilotEdge
Remarks: I-8 attempt via CSTN54
Altitude:
(Current/Filed)
9,000ft
Speed:
(Current/Filed)
180kts
Departed: 13-Feb-18 11:20 PM
Arrived: 13-Feb-18 11:50 PM
Distance/Time
Traveled:
74nm/0:30
Distance/Time
To Go:
Arrived

Flight Plot

Page will automatically refresh every two minutes.


Map Options




Map Legend


Flown Route
Filed Route
Departure Airport
Arrival Airport
Navaid (VOR, NDB)
Fix

Horizontal Profiles

Position Reports

Time Latitude Longitude Heading Altitude Ground
Speed
13-Feb-18 23:16 33.403292 -118.415955 45 1551ft 0kts
13-Feb-18 23:17 33.403292 -118.415955 45 1551ft 0kts
13-Feb-18 23:18 33.403292 -118.415955 45 1551ft 0kts
13-Feb-18 23:19 33.403292 -118.415955 45 1551ft 0kts
13-Feb-18 23:20 33.403292 -118.415955 45 1551ft 0kts
13-Feb-18 23:21 33.403292 -118.415955 45 1551ft 0kts
13-Feb-18 23:22 33.403292 -118.415955 45 1551ft 0kts
13-Feb-18 23:23 33.403292 -118.415955 45 1551ft 0kts
13-Feb-18 23:24 33.403292 -118.415955 45 1551ft 0kts
13-Feb-18 23:25 33.403470 -118.415712 57 1549ft 10kts
13-Feb-18 23:26 33.406768 -118.412057 55 1506ft 24kts
13-Feb-18 23:27 33.406762 -118.412783 234 1513ft 42kts
13-Feb-18 23:28 33.383845 -118.436312 171 2204ft 154kts
13-Feb-18 23:29 33.368823 -118.389372 98 3518ft 169kts
13-Feb-18 23:30 33.362455 -118.333094 100 4830ft 172kts
13-Feb-18 23:31 33.355393 -118.276205 101 6566ft 177kts
13-Feb-18 23:32 33.347768 -118.217404 102 8954ft 200kts
13-Feb-18 23:33 33.336429 -118.132916 101 8995ft 301kts
13-Feb-18 23:34 33.323138 -118.034280 101 8996ft 299kts
13-Feb-18 23:35 33.309812 -117.936519 100 8990ft 296kts
13-Feb-18 23:36 33.296795 -117.841756 100 8990ft 294kts
13-Feb-18 23:37 33.283523 -117.745518 100 8989ft 292kts
13-Feb-18 23:38 33.270213 -117.649697 100 8989ft 292kts
13-Feb-18 23:39 33.243360 -117.561283 130 8988ft 290kts
13-Feb-18 23:40 33.189699 -117.490065 132 8985ft 290kts
13-Feb-18 23:41 33.132172 -117.422398 150 8817ft 298kts
13-Feb-18 23:42 33.058857 -117.379497 152 7262ft 293kts
13-Feb-18 23:43 32.987603 -117.339299 153 5703ft 291kts
13-Feb-18 23:44 32.915253 -117.298978 152 4979ft 289kts
13-Feb-18 23:45 32.868612 -117.225166 121 4977ft 285kts
13-Feb-18 23:46 32.832471 -117.142404 111 4979ft 284kts
13-Feb-18 23:47 32.801891 -117.055368 111 4982ft 295kts
13-Feb-18 23:48 32.771480 -116.964587 111 4980ft 296kts
13-Feb-18 23:49 32.741644 -116.874224 111 4975ft 274kts
13-Feb-18 23:50 32.685609 -116.856222 210 4308ft 217kts
13-Feb-18 23:51 32.653432 -116.900496 269 3971ft 174kts
13-Feb-18 23:52 32.677344 -116.953666 301 3976ft 183kts
13-Feb-18 23:53 32.694319 -117.011231 286 3751ft 190kts
13-Feb-18 23:54 32.707339 -117.067117 286 2430ft 165kts
13-Feb-18 23:55 32.717488 -117.118829 278 1018ft 158kts
13-Feb-18 23:56 32.726887 -117.162382 287 383ft 112kts
13-Feb-18 23:57 32.733738 -117.190287 282 16ft 25kts
13-Feb-18 23:58 32.733254 -117.191516 199 16ft 0kts
13-Feb-18 23:59 32.731768 -117.192862 224 15ft 7kts
14-Feb-18 00:00 32.731632 -117.193467 259 16ft 0kts
14-Feb-18 00:01 32.731632 -117.193467 259 16ft 0kts
14-Feb-18 00:02 32.731632 -117.193467 259 16ft 0kts
14-Feb-18 00:03 32.731632 -117.193467 259 16ft 0kts
14-Feb-18 00:04 32.731632 -117.193467 259 16ft 0kts
14-Feb-18 00:05 32.731632 -117.193467 259 16ft 0kts
14-Feb-18 00:06 32.731632 -117.193467 259 16ft 0kts
14-Feb-18 00:07 32.731632 -117.193467 259 16ft 0kts
14-Feb-18 00:08 32.731632 -117.193467 259 16ft 0kts
14-Feb-18 00:09 32.731632 -117.193467 259 16ft 0kts
14-Feb-18 00:10 32.731632 -117.193467 259 16ft 0kts
14-Feb-18 00:11 32.731632 -117.193467 259 16ft 0kts

Navigation Log

Ident Type
1. KAVX Airport
2. SXC Navaid
3. CARDI Fix
4. MZB Navaid
5. KSAN Airport